Time,TemperatureF,DewpointF,PressureIn,WindDirection,WindDirectionDegrees,WindSpeedMPH,WindSpeedGustMPH,Humidity,HourlyPrecipIn,Conditions,Clouds,dailyrainin,SoftwareType,DateUTC
2013-03-24 00:12:00,53.0,40.0,29.46,WSW,246,3.0,-999.0,61,0.00,,,0.00,,2013-03-24 07:12:00,
2013-03-24 00:22:00,53.0,40.0,29.46,WSW,246,3.0,-999.0,61,0.00,,,0.00,,2013-03-24 07:22:00,
2013-03-24 00:32:00,53.0,40.0,29.46,WSW,246,3.0,-999.0,61,0.00,,,0.00,,2013-03-24 07:32:00,
2013-03-24 00:42:00,53.0,40.0,29.46,WSW,246,3.0,-999.0,61,0.00,,,0.00,,2013-03-24 07:42:00,
2013-03-24 01:12:00,51.0,40.0,29.46,North,349,4.0,-999.0,64,0.00,,,0.00,,2013-03-24 08:12:00,
2013-03-24 01:22:00,51.0,40.0,29.46,North,349,4.0,-999.0,64,0.00,,,0.00,,2013-03-24 08:22:00,
2013-03-24 01:32:00,51.0,40.0,29.46,North,349,4.0,-999.0,64,0.00,,,0.00,,2013-03-24 08:32:00,
2013-03-24 01:41:00,51.0,40.0,29.46,North,349,4.0,-999.0,64,0.00,,,0.00,,2013-03-24 08:41:00,
2013-03-24 02:12:00,50.0,40.0,29.47,West,274,0.0,-999.0,67,0.00,,,0.00,,2013-03-24 09:12:00,
2013-03-24 02:22:00,50.0,40.0,29.47,West,274,0.0,-999.0,67,0.00,,,0.00,,2013-03-24 09:22:00,
2013-03-24 02:33:00,50.0,40.0,29.47,West,274,0.0,-999.0,67,0.00,,,0.00,,2013-03-24 09:33:00,
2013-03-24 02:42:00,50.0,40.0,29.47,West,274,0.0,-999.0,67,0.00,,,0.00,,2013-03-24 09:42:00,
2013-03-24 03:12:00,50.0,40.0,29.45,WSW,255,3.0,-999.0,68,0.00,,,0.00,,2013-03-24 10:12:00,
2013-03-24 03:22:00,50.0,40.0,29.45,WSW,255,3.0,-999.0,68,0.00,,,0.00,,2013-03-24 10:22:00,
2013-03-24 03:32:00,50.0,40.0,29.45,WSW,255,3.0,-999.0,68,0.00,,,0.00,,2013-03-24 10:32:00,
2013-03-24 03:42:00,50.0,40.0,29.45,WSW,255,3.0,-999.0,68,0.00,,,0.00,,2013-03-24 10:42:00,
2013-03-24 04:12:00,49.0,40.0,29.44,North,350,5.0,-999.0,70,0.00,,,0.00,,2013-03-24 11:12:00,
2013-03-24 04:22:00,49.0,40.0,29.44,North,350,5.0,-999.0,70,0.00,,,0.00,,2013-03-24 11:22:00,
2013-03-24 04:32:00,49.0,40.0,29.44,North,350,5.0,-999.0,70,0.00,,,0.00,,2013-03-24 11:32:00,
2013-03-24 04:42:00,49.0,40.0,29.44,North,350,5.0,-999.0,70,0.00,,,0.00,,2013-03-24 11:42:00,
2013-03-24 05:12:00,49.0,39.0,29.44,West,278,4.0,-999.0,68,0.00,,,0.00,,2013-03-24 12:12:00,
2013-03-24 05:22:00,49.0,39.0,29.44,West,278,4.0,-999.0,68,0.00,,,0.00,,2013-03-24 12:22:00,
2013-03-24 05:32:00,49.0,39.0,29.44,West,278,4.0,-999.0,68,0.00,,,0.00,,2013-03-24 12:32:00,
2013-03-24 05:42:00,49.0,39.0,29.44,West,278,4.0,-999.0,68,0.00,,,0.00,,2013-03-24 12:42:00,
2013-03-24 06:12:00,48.0,40.0,29.46,NW,320,6.0,-999.0,73,0.00,,,0.00,,2013-03-24 13:12:00,
2013-03-24 06:22:00,48.0,40.0,29.46,NW,320,6.0,-999.0,73,0.00,,,0.00,,2013-03-24 13:22:00,
2013-03-24 06:32:00,48.0,40.0,29.46,NW,320,6.0,-999.0,73,0.00,,,0.00,,2013-03-24 13:32:00,
2013-03-24 06:42:00,48.0,40.0,29.46,NW,320,6.0,-999.0,73,0.00,,,0.00,,2013-03-24 13:42:00,
2013-03-24 07:12:00,47.0,39.0,29.47,ENE,57,4.0,-999.0,74,0.00,,,0.00,,2013-03-24 14:12:00,
2013-03-24 07:22:00,47.0,39.0,29.47,ENE,57,4.0,-999.0,74,0.00,,,0.00,,2013-03-24 14:22:00,
2013-03-24 07:32:00,47.0,39.0,29.47,ENE,57,4.0,-999.0,74,0.00,,,0.00,,2013-03-24 14:32:00,
2013-03-24 07:42:00,47.0,39.0,29.47,ENE,57,4.0,-999.0,74,0.00,,,0.00,,2013-03-24 14:42:00,
2013-03-24 08:12:00,48.0,39.0,29.48,NE,48,6.0,-999.0,73,0.00,,,0.00,,2013-03-24 15:12:00,
2013-03-24 08:22:00,48.0,39.0,29.48,NE,48,6.0,-999.0,73,0.00,,,0.00,,2013-03-24 15:22:00,
2013-03-24 08:33:00,48.0,39.0,29.48,NE,48,6.0,-999.0,73,0.00,,,0.00,,2013-03-24 15:33:00,
2013-03-24 08:43:00,48.0,39.0,29.48,NE,48,6.0,-999.0,73,0.00,,,0.00,,2013-03-24 15:43:00,
2013-03-24 09:12:00,54.0,39.0,29.48,NNW,342,6.0,-999.0,58,0.00,,,0.00,,2013-03-24 16:12:00,
2013-03-24 09:22:00,54.0,39.0,29.48,NNW,342,6.0,-999.0,58,0.00,,,0.00,,2013-03-24 16:22:00,
2013-03-24 09:32:00,54.0,39.0,29.48,NNW,342,6.0,-999.0,58,0.00,,,0.00,,2013-03-24 16:32:00,
2013-03-24 09:42:00,54.0,39.0,29.48,NNW,342,6.0,-999.0,58,0.00,,,0.00,,2013-03-24 16:42:00,
2013-03-24 10:12:00,63.0,39.0,29.47,NE,34,2.0,-999.0,42,0.00,,,0.00,,2013-03-24 17:12:00,
2013-03-24 10:22:00,63.0,39.0,29.47,NE,34,2.0,-999.0,42,0.00,,,0.00,,2013-03-24 17:22:00,
2013-03-24 10:32:00,63.0,39.0,29.47,NE,34,2.0,-999.0,42,0.00,,,0.00,,2013-03-24 17:32:00,
2013-03-24 10:42:00,63.0,39.0,29.47,NE,34,2.0,-999.0,42,0.00,,,0.00,,2013-03-24 17:42:00,
2013-03-24 11:12:00,67.0,37.0,29.46,WNW,299,4.0,-999.0,33,0.00,,,0.00,,2013-03-24 18:12:00,
2013-03-24 11:22:00,67.0,37.0,29.46,WNW,299,4.0,-999.0,33,0.00,,,0.00,,2013-03-24 18:22:00,
2013-03-24 11:32:00,67.0,37.0,29.46,WNW,299,4.0,-999.0,33,0.00,,,0.00,,2013-03-24 18:32:00,
2013-03-24 11:42:00,67.0,37.0,29.46,WNW,299,4.0,-999.0,33,0.00,,,0.00,,2013-03-24 18:42:00,
2013-03-24 12:12:00,66.0,36.0,29.45,SW,230,4.0,-999.0,32,0.00,,,0.00,,2013-03-24 19:12:00,
2013-03-24 12:22:00,66.0,36.0,29.45,SW,230,4.0,-999.0,32,0.00,,,0.00,,2013-03-24 19:22:00,
2013-03-24 12:32:00,66.0,36.0,29.45,SW,230,4.0,-999.0,32,0.00,,,0.00,,2013-03-24 19:32:00,
2013-03-24 12:42:00,66.0,36.0,29.45,SW,230,4.0,-999.0,32,0.00,,,0.00,,2013-03-24 19:42:00,
2013-03-24 13:12:00,69.0,35.0,29.44,SE,134,4.0,-999.0,28,0.00,,,0.00,,2013-03-24 20:12:00,
2013-03-24 13:22:00,69.0,35.0,29.44,SE,134,4.0,-999.0,28,0.00,,,0.00,,2013-03-24 20:22:00,
2013-03-24 13:32:00,69.0,35.0,29.44,SE,134,4.0,-999.0,28,0.00,,,0.00,,2013-03-24 20:32:00,
2013-03-24 13:42:00,69.0,35.0,29.44,SE,134,4.0,-999.0,28,0.00,,,0.00,,2013-03-24 20:42:00,
2013-03-24 14:12:00,71.0,36.0,29.41,WSW,254,4.0,-999.0,28,0.00,,,0.00,,2013-03-24 21:12:00,
2013-03-24 14:22:00,71.0,36.0,29.41,WSW,254,4.0,-999.0,28,0.00,,,0.00,,2013-03-24 21:22:00,
2013-03-24 14:32:00,71.0,36.0,29.41,WSW,254,4.0,-999.0,28,0.00,,,0.00,,2013-03-24 21:32:00,
2013-03-24 14:43:00,71.0,36.0,29.41,WSW,254,4.0,-999.0,28,0.00,,,0.00,,2013-03-24 21:43:00,
2013-03-24 15:13:00,72.0,36.0,29.38,NW,305,4.0,-999.0,26,0.00,,,0.00,,2013-03-24 22:13:00,
2013-03-24 15:22:00,72.0,36.0,29.38,NW,305,4.0,-999.0,26,0.00,,,0.00,,2013-03-24 22:22:00,
2013-03-24 15:33:00,72.0,36.0,29.38,NW,305,4.0,-999.0,26,0.00,,,0.00,,2013-03-24 22:33:00,
2013-03-24 15:42:00,72.0,36.0,29.38,NW,305,4.0,-999.0,26,0.00,,,0.00,,2013-03-24 22:42:00,
2013-03-24 16:12:00,74.0,35.0,29.35,SW,236,4.0,-999.0,24,0.00,,,0.00,,2013-03-24 23:12:00,
2013-03-24 16:22:00,74.0,35.0,29.35,SW,236,4.0,-999.0,24,0.00,,,0.00,,2013-03-24 23:22:00,
2013-03-24 16:32:00,74.0,35.0,29.35,SW,236,4.0,-999.0,24,0.00,,,0.00,,2013-03-24 23:32:00,
2013-03-24 17:12:00,75.0,36.0,29.34,ENE,77,2.0,-999.0,24,0.00,,,0.00,,2013-03-25 00:12:00,
2013-03-24 17:22:00,75.0,36.0,29.34,ENE,77,2.0,-999.0,24,0.00,,,0.00,,2013-03-25 00:22:00,
2013-03-24 17:32:00,75.0,36.0,29.34,ENE,77,2.0,-999.0,24,0.00,,,0.00,,2013-03-25 00:32:00,
2013-03-24 17:42:00,75.0,36.0,29.34,ENE,77,2.0,-999.0,24,0.00,,,0.00,,2013-03-25 00:42:00,
2013-03-24 18:12:00,74.0,38.0,29.34,West,273,3.0,-999.0,27,0.00,,,0.00,,2013-03-25 01:12:00,
2013-03-24 18:22:00,74.0,38.0,29.34,West,273,3.0,-999.0,27,0.00,,,0.00,,2013-03-25 01:22:00,
2013-03-24 18:32:00,74.0,38.0,29.34,West,273,3.0,-999.0,27,0.00,,,0.00,,2013-03-25 01:32:00,
2013-03-24 18:42:00,74.0,38.0,29.34,West,273,3.0,-999.0,27,0.00,,,0.00,,2013-03-25 01:42:00,
2013-03-24 19:12:00,71.0,39.0,29.33,SW,216,4.0,-999.0,31,0.00,,,0.00,,2013-03-25 02:12:00,
2013-03-24 19:22:00,71.0,39.0,29.33,SW,216,4.0,-999.0,31,0.00,,,0.00,,2013-03-25 02:22:00,
2013-03-24 19:32:00,71.0,39.0,29.33,SW,216,4.0,-999.0,31,0.00,,,0.00,,2013-03-25 02:32:00,
2013-03-24 19:42:00,71.0,39.0,29.33,SW,216,4.0,-999.0,31,0.00,,,0.00,,2013-03-25 02:42:00,
2013-03-24 20:12:00,65.0,42.0,29.33,ENE,61,10.0,-999.0,43,0.00,,,0.00,,2013-03-25 03:12:00,
2013-03-24 20:22:00,65.0,42.0,29.33,ENE,61,10.0,-999.0,43,0.00,,,0.00,,2013-03-25 03:22:00,
2013-03-24 20:33:00,65.0,42.0,29.33,ENE,61,10.0,-999.0,43,0.00,,,0.00,,2013-03-25 03:33:00,
2013-03-24 20:42:00,65.0,42.0,29.33,ENE,61,10.0,-999.0,43,0.00,,,0.00,,2013-03-25 03:42:00,
2013-03-24 21:12:00,62.0,43.0,29.35,ENE,72,4.0,-999.0,51,0.00,,,0.00,,2013-03-25 04:12:00,
2013-03-24 21:22:00,62.0,43.0,29.35,ENE,72,4.0,-999.0,51,0.00,,,0.00,,2013-03-25 04:22:00,
2013-03-24 21:32:00,62.0,43.0,29.35,ENE,72,4.0,-999.0,51,0.00,,,0.00,,2013-03-25 04:32:00,
2013-03-24 21:42:00,62.0,43.0,29.35,ENE,72,4.0,-999.0,51,0.00,,,0.00,,2013-03-25 04:42:00,
2013-03-24 22:12:00,60.0,44.0,29.36,North,353,6.0,-999.0,57,0.00,,,0.00,,2013-03-25 05:12:00,
2013-03-24 22:22:00,60.0,44.0,29.36,North,353,6.0,-999.0,57,0.00,,,0.00,,2013-03-25 05:22:00,
2013-03-24 22:32:00,60.0,44.0,29.36,North,353,6.0,-999.0,57,0.00,,,0.00,,2013-03-25 05:32:00,
2013-03-24 22:42:00,60.0,44.0,29.36,North,353,6.0,-999.0,57,0.00,,,0.00,,2013-03-25 05:42:00,